Time;durP1;ratioP1;P1;durP2;ratioP2;P2;SDS_P1;SDS_P2;PMS_P1;PMS_P2;Temp;Humidity;BMP_temperature;BMP_pressure;BME280_temperature;BME280_humidity;BME280_pressure;Samples;Min_cycle;Max_cycle;Signal;HPM_P1;HPM_P2
2021/04/09 00:01:22;;;;;;;10.53;7.87;;;;;;;4.63;57.87;101746.41;5134708;27;20374;-42
2021/04/09 00:03:47;;;;;;;12.97;8.37;;;;;;;4.59;58.70;101737.06;5134473;27;20031;-42
2021/04/09 00:06:13;;;;;;;11.40;8.07;;;;;;;4.63;58.56;101733.03;5134605;27;20034;-41
2021/04/09 00:08:38;;;;;;;12.20;7.67;;;;;;;4.64;58.61;101734.72;5134487;27;20031;-39
2021/04/09 00:11:03;;;;;;;13.40;8.37;;;;;;;4.63;58.46;101728.50;5134981;27;20043;-39
2021/04/09 00:13:28;;;;;;;12.00;8.13;;;;;;;4.66;58.59;101727.34;5134696;27;20035;-39
2021/04/09 00:15:54;;;;;;;15.13;7.93;;;;;;;4.68;58.64;101727.97;5134342;27;20031;-41
2021/04/09 00:18:19;;;;;;;10.07;7.93;;;;;;;4.65;58.78;101713.09;5134268;27;20034;-39
2021/04/09 00:20:44;;;;;;;13.87;8.17;;;;;;;4.64;59.17;101708.75;5134668;27;20046;-41
2021/04/09 00:23:10;;;;;;;10.63;7.53;;;;;;;4.64;58.64;101714.13;5134638;27;20344;-39
2021/04/09 00:25:35;;;;;;;12.83;8.20;;;;;;;4.58;59.73;101706.75;5134924;27;20027;-39
2021/04/09 00:28:00;;;;;;;12.40;8.83;;;;;;;4.56;59.16;101706.09;5134265;27;20019;-40
2021/04/09 00:30:28;;;;;;;11.77;8.33;;;;;;;4.54;58.98;101701.88;5134346;27;20102;-39
2021/04/09 00:32:53;;;;;;;11.40;8.20;;;;;;;4.53;59.08;101705.59;5133875;27;20029;-39
2021/04/09 00:35:19;;;;;;;11.73;8.63;;;;;;;4.54;58.90;101705.44;5134570;27;20450;-39
2021/04/09 00:37:44;;;;;;;15.13;8.93;;;;;;;4.54;59.15;101699.22;5134243;27;20023;-39
2021/04/09 00:40:11;;;;;;;13.30;8.65;;;;;;;4.54;59.25;101691.19;5133632;28;20288;-41
2021/04/09 00:42:37;;;;;;;;;;;;;;;4.56;58.93;101681.16;5134095;28;20481;-40
2021/04/09 00:45:03;;;;;;;13.07;8.93;;;;;;;4.50;59.67;101684.50;5136189;27;19911;-41
2021/04/09 00:47:28;;;;;;;11.48;8.68;;;;;;;4.46;59.21;101675.97;5138503;27;20027;-40
2021/04/09 00:49:54;;;;;;;11.80;8.70;;;;;;;4.46;59.05;101684.00;5139246;27;20023;-40
2021/04/09 00:52:21;;;;;;;16.97;9.97;;;;;;;4.45;59.45;101681.50;5138293;27;20023;-40
2021/04/09 00:54:46;;;;;;;14.70;9.65;;;;;;;4.44;59.71;101679.81;5138562;27;20023;-41
2021/04/09 00:57:12;;;;;;;14.07;9.77;;;;;;;4.47;59.95;101685.69;5138009;27;20156;-41
2021/04/09 00:59:38;;;;;;;15.57;10.13;;;;;;;4.46;59.71;101678.66;5138244;27;20264;-40
2021/04/09 01:02:04;;;;;;;15.57;10.30;;;;;;;4.46;60.14;101678.66;5138219;27;20062;-40
2021/04/09 01:04:30;;;;;;;15.57;9.95;;;;;;;4.43;59.95;101672.78;5138188;27;20112;-40
2021/04/09 01:06:56;;;;;;;14.38;10.63;;;;;;;4.44;60.47;101680.69;5137903;27;20073;-40
2021/04/09 01:09:21;;;;;;;14.63;9.97;;;;;;;4.43;60.00;101673.63;5138502;27;20032;-40
2021/04/09 01:11:46;;;;;;;15.70;10.17;;;;;;;4.40;60.63;101671.31;5138171;27;20035;-40
2021/04/09 01:14:12;;;;;;;13.53;9.13;;;;;;;4.41;60.28;101669.47;5137986;27;20038;-40
2021/04/09 01:16:47;;;;;;;17.03;9.17;;;;;;;4.42;60.64;101671.97;5137598;27;20462;-40
2021/04/09 01:19:31;;;;;;;13.32;8.68;;;;;;;4.43;60.69;101662.09;5137800;27;20034;-40
2021/04/09 01:22:02;;;;;;;14.20;8.75;;;;;;;4.39;60.50;101665.13;5138123;27;20023;-40
2021/04/09 01:24:46;;;;;;;21.90;9.82;;;;;;;4.46;59.92;101657.22;5138219;27;20031;-40
2021/04/09 01:27:37;;;;;;;14.75;9.38;;;;;;;4.47;59.72;101658.06;5137591;27;20023;-40
2021/04/09 01:30:17;;;;;;;15.55;9.82;;;;;;;4.46;60.09;101651.03;5137640;27;20553;-40
2021/04/09 01:32:43;;;;;;;14.52;9.77;;;;;;;4.42;60.44;101655.91;5138309;27;20046;-40
2021/04/09 01:35:13;;;;;;;14.50;9.60;;;;;;;4.46;60.88;101653.72;5137844;27;20027;-40
2021/04/09 01:37:42;;;;;;;12.73;9.32;;;;;;;4.37;60.46;101648.38;5138194;27;20050;-40
2021/04/09 01:40:17;;;;;;;14.88;8.45;;;;;;;4.34;60.99;101646.06;5137541;27;20515;-40
2021/04/09 01:42:45;;;;;;;14.90;9.23;;;;;;;4.35;60.53;101642.34;5137997;27;20048;-41
2021/04/09 01:45:12;;;;;;;13.57;9.32;;;;;;;4.31;60.62;101635.66;5137227;27;20079;-40
2021/04/09 01:47:39;;;;;;;15.65;9.50;;;;;;;4.27;61.27;101636.19;5137402;27;20458;-41
2021/04/09 01:50:09;;;;;;;;;;;;;;;4.36;60.49;101630.63;5137872;27;20031;-41
2021/04/09 01:52:35;;;;;;;18.88;9.35;;;;;;;4.25;60.89;101628.31;5136790;27;19907;-41
2021/04/09 01:55:05;;;;;;;13.98;8.70;;;;;;;4.25;61.19;101628.31;5136905;27;20031;-40
2021/04/09 01:57:32;;;;;;;12.93;10.13;;;;;;;4.19;61.19;101628.16;5136737;27;20050;-40
2021/04/09 01:59:59;;;;;;;13.70;8.43;;;;;;;4.19;61.17;101623.63;5137738;27;20034;-41
2021/04/09 02:02:25;;;;;;;15.10;8.35;;;;;;;4.23;61.29;101618.78;5136709;27;20106;-40
2021/04/09 02:04:51;;;;;;;11.48;8.88;;;;;;;4.25;61.56;101617.63;5137062;27;20475;-41
2021/04/09 02:07:18;;;;;;;14.77;8.68;;;;;;;4.21;61.31;101610.94;5136573;27;20448;-41
2021/04/09 02:09:46;;;;;;;10.35;8.43;;;;;;;4.20;61.95;101619.97;5137365;27;20023;-40
2021/04/09 02:12:12;;;;;;;13.70;9.20;;;;;;;4.20;61.70;101611.94;5137135;27;20046;-40
2021/04/09 02:14:41;;;;;;;14.80;8.77;;;;;;;4.16;61.92;101599.06;5137031;27;20038;-41
2021/04/09 02:17:09;;;;;;;12.00;8.20;;;;;;;4.18;61.71;101599.72;5136902;27;20043;-40
2021/04/09 02:19:34;;;;;;;14.27;9.32;;;;;;;4.14;61.77;101594.69;5136308;27;20023;-41
2021/04/09 02:22:00;;;;;;;15.17;8.37;;;;;;;4.15;61.95;101590.19;5136560;27;20023;-41
2021/04/09 02:24:25;;;;;;;10.37;8.57;;;;;;;4.15;62.23;101592.88;5136648;27;20115;-41
2021/04/09 02:26:51;;;;;;;12.40;8.77;;;;;;;4.12;62.31;101590.53;5137277;27;20019;-41
2021/04/09 02:29:17;;;;;;;12.60;8.75;;;;;;;4.07;62.16;101585.69;5136191;27;20027;-40
2021/04/09 02:31:43;;;;;;;13.23;8.70;;;;;;;4.04;62.30;101587.84;5136035;27;20035;-40
2021/04/09 02:34:08;;;;;;;14.02;9.23;;;;;;;4.00;63.11;101583.84;5137117;27;20034;-40
2021/04/09 02:36:33;;;;;;;14.07;8.77;;;;;;;3.96;62.85;101577.19;5136079;27;20039;-40
2021/04/09 02:39:05;;;;;;;16.73;8.40;;;;;;;3.98;63.44;101584.03;5136533;27;20042;-40
2021/04/09 02:41:35;;;;;;;12.95;8.57;;;;;;;3.96;63.25;101574.50;5136579;27;20034;-40
2021/04/09 02:44:02;;;;;;;11.27;7.88;;;;;;;4.05;63.09;101578.81;5135818;27;20027;-40
2021/04/09 02:46:36;;;;;;;13.23;8.85;;;;;;;3.99;62.72;101579.50;5136169;27;20037;-40
2021/04/09 02:49:13;;;;;;;14.48;7.95;;;;;;;3.99;62.59;101584.84;5136426;27;20024;-40
2021/04/09 02:51:41;;;;;;;12.65;8.27;;;;;;;3.93;62.73;101581.03;5136530;27;20031;-40
2021/04/09 02:54:13;;;;;;;12.98;7.97;;;;;;;3.92;63.26;101574.00;5136096;27;20486;-40
2021/04/09 02:56:40;;;;;;;12.60;8.40;;;;;;;3.96;62.57;101577.19;5136122;27;20023;-40
2021/04/09 02:59:10;;;;;;;11.77;8.05;;;;;;;3.93;62.85;101581.03;5135796;27;20084;-40
2021/04/09 03:01:37;;;;;;;13.27;8.05;;;;;;;3.94;63.21;101573.81;5136419;27;20034;-40
2021/04/09 03:04:04;;;;;;;11.75;7.85;;;;;;;3.91;63.33;101574.19;5135831;27;20106;-40
2021/04/09 03:06:30;;;;;;;11.20;8.18;;;;;;;3.92;63.36;101575.84;5135886;27;20451;-41
2021/04/09 03:08:55;;;;;;;12.50;8.50;;;;;;;3.88;63.14;101573.50;5134996;27;20057;-41
2021/04/09 03:11:21;;;;;;;11.73;7.53;;;;;;;3.87;63.07;101574.50;5136216;27;20351;-41
2021/04/09 03:13:47;;;;;;;12.50;8.35;;;;;;;3.90;62.75;101575.16;5136233;27;20035;-42
2021/04/09 03:16:16;;;;;;;8.77;7.30;;;;;;;3.88;62.81;101565.47;5135646;27;20355;-41
2021/04/09 03:18:43;;;;;;;12.60;7.47;;;;;;;3.90;62.65;101567.97;5135085;27;20023;-41
2021/04/09 03:21:09;;;;;;;12.90;7.82;;;;;;;3.91;63.23;101571.50;5135611;27;20045;-41
2021/04/09 03:23:34;;;;;;;9.37;7.10;;;;;;;3.90;63.08;101565.28;5134991;27;20039;-41
2021/04/09 03:25:59;;;;;;;11.60;7.40;;;;;;;3.86;62.98;101559.47;5135365;27;20420;-42
2021/04/09 03:28:25;;;;;;;11.07;7.30;;;;;;;3.87;62.77;101563.81;5133500;27;20544;-41
2021/04/09 03:30:50;;;;;;;14.70;8.32;;;;;;;3.87;63.04;101554.94;5135544;27;20109;-41
2021/04/09 03:33:20;;;;;;;13.23;7.77;;;;;;;3.83;63.12;101551.78;5135153;27;20476;-42
2021/04/09 03:35:46;;;;;;;11.32;7.25;;;;;;;3.85;63.37;101555.09;5135155;27;20023;-41
2021/04/09 03:38:13;;;;;;;10.23;7.00;;;;;;;3.90;63.19;101553.75;5135113;27;20038;-41
2021/04/09 03:40:39;;;;;;;13.85;7.88;;;;;;;3.82;62.85;101544.75;5135301;27;20027;-41
2021/04/09 03:43:04;;;;;;;12.63;7.28;;;;;;;3.79;62.98;101545.09;5135094;27;20023;-40
2021/04/09 03:45:30;;;;;;;11.23;7.23;;;;;;;3.78;63.47;101540.75;5135001;27;20378;-41
2021/04/09 03:47:55;;;;;;;11.23;7.17;;;;;;;3.80;63.41;101543.25;5135043;27;20106;-41
2021/04/09 03:50:21;;;;;;;10.73;7.30;;;;;;;3.81;63.66;101535.06;5134857;27;20360;-41
2021/04/09 03:52:46;;;;;;;11.27;7.93;;;;;;;3.77;63.45;101532.91;5134757;27;20034;-41
2021/04/09 03:55:13;;;;;;;11.07;7.53;;;;;;;3.79;63.43;101529.03;5135005;27;20023;-41
2021/04/09 03:57:38;;;;;;;12.77;6.95;;;;;;;3.75;63.73;101530.38;5134792;27;20079;-41
2021/04/09 04:00:05;;;;;;;10.70;7.47;;;;;;;3.77;63.04;101539.06;5135020;27;20109;-41
2021/04/09 04:02:31;;;;;;;11.95;7.10;;;;;;;3.69;63.79;101525.69;5134532;27;20114;-41
2021/04/09 04:04:56;;;;;;;10.90;7.30;;;;;;;3.71;63.99;101529.06;5134875;27;20167;-41
2021/04/09 04:07:21;;;;;;;10.23;7.63;;;;;;;3.73;63.61;101534.22;5134552;27;20034;-41
2021/04/09 04:09:46;;;;;;;10.90;7.17;;;;;;;3.71;63.61;101539.75;5134914;27;20050;-41
2021/04/09 04:12:12;;;;;;;12.83;8.67;;;;;;;3.69;64.01;101533.72;5134945;27;20039;-41
2021/04/09 04:14:37;;;;;;;13.73;7.57;;;;;;;3.68;64.21;101532.06;5134389;27;20110;-41
2021/04/09 04:17:03;;;;;;;10.30;7.07;;;;;;;3.67;64.03;101533.06;5134469;27;20031;-41
2021/04/09 04:19:28;;;;;;;13.07;6.63;;;;;;;3.67;63.79;101535.75;5135157;27;20026;-41
2021/04/09 04:21:53;;;;;;;8.93;7.17;;;;;;;3.63;64.00;101526.38;5134378;27;20023;-41
2021/04/09 04:24:19;;;;;;;12.50;7.50;;;;;;;3.66;64.38;101535.91;5134618;27;20062;-41
2021/04/09 04:26:44;;;;;;;16.80;7.33;;;;;;;3.63;64.03;101521.03;5134865;27;20450;-41
2021/04/09 04:29:09;;;;;;;10.07;7.43;;;;;;;3.62;64.39;101522.03;5134355;27;20050;-41
2021/04/09 04:31:35;;;;;;;13.20;7.67;;;;;;;3.60;64.55;101516.00;5134318;27;20031;-41
2021/04/09 04:34:03;;;;;;;12.87;7.70;;;;;;;3.61;64.03;101515.00;5134741;27;20042;-41
2021/04/09 04:36:28;;;;;;;14.50;8.13;;;;;;;3.56;64.28;101517.34;5134458;27;20053;-41
2021/04/09 04:38:53;;;;;;;13.13;8.07;;;;;;;3.57;64.46;101516.38;5134235;27;20023;-41
2021/04/09 04:41:19;;;;;;;15.50;8.10;;;;;;;3.52;64.56;101524.91;5134407;28;20027;-41
2021/04/09 04:43:44;;;;;;;11.40;7.82;;;;;;;3.53;64.87;101515.88;5133724;28;20523;-41
2021/04/09 04:46:10;;;;;;;10.83;7.23;;;;;;;3.52;65.00;101516.03;5134692;28;20420;-41
2021/04/09 04:48:35;;;;;;;14.25;7.55;;;;;;;3.48;64.93;101517.38;5134171;28;20493;-41
2021/04/09 04:51:01;;;;;;;12.20;7.77;;;;;;;3.48;65.01;101512.88;5134333;28;20081;-41
2021/04/09 04:53:26;;;;;;;13.50;7.50;;;;;;;3.48;65.18;101509.34;5133974;28;20379;-41
2021/04/09 04:55:52;;;;;;;11.20;7.67;;;;;;;3.46;65.04;101509.50;5134795;28;20029;-41
2021/04/09 04:58:17;;;;;;;11.90;8.30;;;;;;;3.46;65.28;101514.00;5133705;28;20034;-41
2021/04/09 05:00:42;;;;;;;10.17;7.60;;;;;;;3.43;64.86;101517.88;5133424;28;20019;-41
2021/04/09 05:03:07;;;;;;;13.40;7.43;;;;;;;3.45;65.74;101507.00;5133751;28;20031;-41
2021/04/09 05:05:33;;;;;;;13.40;8.03;;;;;;;3.42;65.75;101512.72;5133622;28;20019;-41
2021/04/09 05:07:58;;;;;;;18.00;8.50;;;;;;;3.37;65.84;101515.88;5133709;28;20160;-42
2021/04/09 05:10:23;;;;;;;11.17;7.17;;;;;;;3.37;65.86;101505.19;5133725;28;20024;-42
2021/04/09 05:12:49;;;;;;;14.37;8.47;;;;;;;3.41;65.57;101505.66;5134098;28;20056;-42
2021/04/09 05:15:14;;;;;;;16.07;8.50;;;;;;;3.40;65.76;101504.00;5116234;28;20047;-42
2021/04/09 05:17:39;;;;;;;12.70;8.27;;;;;;;3.41;66.38;101494.97;5133946;28;20023;-42
2021/04/09 05:20:06;;;;;;;13.87;8.30;;;;;;;3.35;66.08;101488.47;5133837;28;20027;-42
2021/04/09 05:22:32;;;;;;;11.73;8.10;;;;;;;3.36;65.97;101485.59;5133790;28;20043;-42
2021/04/09 05:24:58;;;;;;;12.07;8.02;;;;;;;3.43;65.78;101488.47;5133489;28;20019;-41
2021/04/09 05:27:23;;;;;;;13.80;8.47;;;;;;;3.43;66.41;101490.31;5133801;28;20019;-42
2021/04/09 05:29:49;;;;;;;13.10;8.52;;;;;;;3.41;66.53;101482.44;5134119;28;20532;-41
2021/04/09 05:32:14;;;;;;;12.27;8.50;;;;;;;3.45;66.16;101483.78;5136968;27;20023;-41
2021/04/09 05:34:40;;;;;;;11.10;8.23;;;;;;;3.47;66.24;101483.63;5137859;27;20058;-41
2021/04/09 05:37:06;;;;;;;12.20;7.93;;;;;;;3.49;65.82;101486.94;5137656;27;20035;-41
2021/04/09 05:39:32;;;;;;;14.82;9.65;;;;;;;3.53;65.65;101488.28;5137706;27;20027;-41
2021/04/09 05:41:57;;;;;;;13.20;8.40;;;;;;;3.59;65.43;101492.97;5137116;27;20452;-41
2021/04/09 05:44:23;;;;;;;16.20;9.13;;;;;;;3.62;65.45;101484.59;5136491;27;20076;-41
2021/04/09 05:46:48;;;;;;;12.90;8.30;;;;;;;3.70;65.12;101491.75;5137071;27;20031;-41
2021/04/09 05:49:14;;;;;;;15.53;9.33;;;;;;;3.76;65.45;101491.94;5138120;27;20023;-40
2021/04/09 05:51:39;;;;;;;17.65;8.00;;;;;;;3.82;65.50;101491.25;5137315;27;20031;-41
2021/04/09 05:54:05;;;;;;;14.63;8.33;;;;;;;3.86;65.06;101492.56;5137792;27;20099;-42
2021/04/09 05:56:30;;;;;;;12.80;8.40;;;;;;;3.90;65.14;101501.06;5136877;27;20027;-41
2021/04/09 05:58:56;;;;;;;10.50;7.43;;;;;;;3.94;64.97;101488.19;5137162;27;20068;-41
2021/04/09 06:01:21;;;;;;;14.93;8.53;;;;;;;4.01;64.70;101491.88;5137223;27;20144;-41
2021/04/09 06:03:47;;;;;;;14.43;8.73;;;;;;;4.04;65.33;101492.34;5136790;27;20023;-40
2021/04/09 06:06:13;;;;;;;12.85;8.35;;;;;;;4.13;64.83;101490.47;5137104;27;20133;-41
2021/04/09 06:08:38;;;;;;;12.23;8.33;;;;;;;4.20;64.51;101491.47;5136984;27;20506;-41
2021/04/09 06:11:05;;;;;;;16.27;9.07;;;;;;;4.22;64.61;101491.28;5137279;27;20050;-41
2021/04/09 06:13:30;;;;;;;12.52;8.43;;;;;;;4.27;64.59;101489.75;5137691;27;20083;-41
2021/04/09 06:15:55;;;;;;;13.40;8.63;;;;;;;4.33;64.58;101489.06;5137689;27;20027;-40
2021/04/09 06:18:21;;;;;;;11.07;7.83;;;;;;;4.38;64.18;101505.44;5137139;27;20050;-41
2021/04/09 06:20:46;;;;;;;12.20;8.50;;;;;;;4.46;63.97;101496.53;5136848;27;20450;-41
2021/04/09 06:23:11;;;;;;;13.20;8.67;;;;;;;4.50;64.04;101497.03;5136313;27;20489;-41
2021/04/09 06:25:37;;;;;;;13.40;7.77;;;;;;;4.55;64.00;101498.16;5136397;27;20031;-41
2021/04/09 06:28:02;;;;;;;11.90;8.03;;;;;;;4.59;63.92;101487.94;5136522;27;20046;-41
2021/04/09 06:30:27;;;;;;;11.20;8.03;;;;;;;4.69;64.36;101490.41;5136666;27;20031;-41
2021/04/09 06:32:53;;;;;;;11.40;8.57;;;;;;;4.71;63.34;101483.00;5137086;27;20027;-41
2021/04/09 06:35:18;;;;;;;14.40;9.17;;;;;;;4.80;63.26;101487.31;5136304;27;20383;-41
2021/04/09 06:37:43;;;;;;;11.10;8.13;;;;;;;4.87;63.98;101491.75;5136437;27;20358;-41
2021/04/09 06:40:12;;;;;;;12.40;7.93;;;;;;;4.99;63.85;101497.56;5136720;27;20019;-41
2021/04/09 06:42:38;;;;;;;14.25;8.98;;;;;;;5.02;63.96;101491.81;5134528;27;20102;-41
2021/04/09 06:45:04;;;;;;;12.83;8.13;;;;;;;5.08;63.34;101485.78;5136596;27;20111;-41
2021/04/09 06:47:32;;;;;;;12.02;8.50;;;;;;;5.10;63.08;101488.25;5136201;27;20311;-41
2021/04/09 06:49:57;;;;;;;12.70;7.72;;;;;;;5.15;63.12;101491.25;5136813;27;20115;-41
2021/04/09 06:52:25;;;;;;;12.40;8.20;;;;;;;5.13;62.42;101483.38;5136719;27;20058;-41
2021/04/09 06:54:51;;;;;;;14.43;8.60;;;;;;;5.21;63.53;101485.16;5136295;27;20091;-41
2021/04/09 06:57:17;;;;;;;14.80;8.70;;;;;;;5.23;62.85;101482.31;5136083;27;20451;-41
2021/04/09 06:59:44;;;;;;;13.25;8.25;;;;;;;5.30;62.96;101477.88;5135681;27;20494;-41
2021/04/09 07:02:16;;;;;;;14.25;8.88;;;;;;;5.38;62.56;101481.31;5136115;27;20111;-41
2021/04/09 07:04:45;;;;;;;10.70;7.65;;;;;;;5.46;61.94;101476.88;5136331;27;20135;-41
2021/04/09 07:07:12;;;;;;;12.93;8.80;;;;;;;5.52;61.94;101466.28;5135812;27;20019;-41
2021/04/09 07:09:38;;;;;;;12.18;8.23;;;;;;;5.60;61.29;101465.34;5136270;27;20113;-41
2021/04/09 07:12:04;;;;;;;;;;;;;;;5.74;61.74;101458.34;5134686;27;20436;-41
2021/04/09 07:14:49;;;;;;;15.18;7.80;;;;;;;5.74;61.70;101459.16;5136013;27;20006;-41
2021/04/09 07:17:24;;;;;;;12.23;8.02;;;;;;;5.79;61.39;101462.13;5135608;27;20107;-41
2021/04/09 07:19:50;;;;;;;13.13;6.95;;;;;;;5.87;61.00;101466.59;5135875;27;20120;-41
2021/04/09 07:22:27;;;;;;;15.10;7.03;;;;;;;5.97;61.30;101463.66;5135504;27;20056;-41
2021/04/09 07:25:27;;;;;;;7.22;6.18;;;;;;;6.07;59.85;101466.91;5135780;27;20107;-41
2021/04/09 07:28:21;;;;;;;13.07;7.18;;;;;;;6.22;60.76;101459.66;5133957;27;20038;-41
2021/04/09 07:30:50;;;;;;;11.48;6.45;;;;;;;6.37;60.13;101455.09;5135417;27;20044;-41
2021/04/09 07:33:24;;;;;;;12.88;6.40;;;;;;;6.45;58.88;101465.72;5135582;27;20028;-41
2021/04/09 07:35:56;;;;;;;10.23;6.57;;;;;;;6.52;58.72;101467.66;5135324;27;20027;-41
2021/04/09 07:38:33;;;;;;;12.93;6.68;;;;;;;6.56;59.21;101474.31;5134903;27;20113;-41
2021/04/09 07:41:04;;;;;;;8.30;6.47;;;;;;;6.71;59.28;101467.06;5136048;27;20023;-41
2021/04/09 07:43:31;;;;;;;12.52;6.68;;;;;;;6.86;59.42;101459.75;5135370;27;20056;-41
2021/04/09 07:45:59;;;;;;;9.95;6.57;;;;;;;6.97;59.15;101461.94;5135171;27;20019;-41
2021/04/09 07:48:29;;;;;;;9.98;6.10;;;;;;;7.02;58.26;101460.53;5135011;27;20023;-41
2021/04/09 07:50:56;;;;;;;13.00;6.75;;;;;;;7.06;58.35;101451.88;5134129;27;20039;-41
2021/04/09 07:53:30;;;;;;;8.80;5.82;;;;;;;7.10;57.68;101460.41;5135408;27;20031;-41
2021/04/09 07:56:06;;;;;;;14.73;6.05;;;;;;;7.15;57.78;101458.78;5135528;27;20110;-41
2021/04/09 07:58:34;;;;;;;10.40;6.10;;;;;;;7.26;57.34;101461.97;5134915;27;20023;-41
2021/04/09 08:01:00;;;;;;;9.43;5.90;;;;;;;7.32;57.36;101466.59;5135677;27;20065;-41
2021/04/09 08:03:36;;;;;;;8.02;5.50;;;;;;;7.44;56.80;101468.56;5135285;27;20114;-41
2021/04/09 08:06:13;;;;;;;7.30;5.40;;;;;;;7.61;56.54;101469.13;5135373;27;20035;-41
2021/04/09 08:08:58;;;;;;;10.05;5.60;;;;;;;7.69;55.83;101476.19;5134662;27;20487;-41
2021/04/09 08:11:26;;;;;;;8.77;4.90;;;;;;;7.78;55.91;101475.03;5134412;27;20467;-41
2021/04/09 08:14:12;;;;;;;7.80;5.03;;;;;;;7.83;54.95;101469.88;5134906;27;20386;-41
2021/04/09 08:16:43;;;;;;;8.07;5.15;;;;;;;7.79;55.46;101465.91;5134713;27;20106;-41
2021/04/09 08:19:14;;;;;;;9.52;5.15;;;;;;;7.83;54.76;101456.41;5134583;27;20023;-41
2021/04/09 08:21:42;;;;;;;8.18;5.38;;;;;;;7.99;55.35;101457.94;5134801;27;20038;-42
2021/04/09 08:24:09;;;;;;;8.65;5.03;;;;;;;8.07;54.34;101455.09;5135118;27;20409;-41
2021/04/09 08:26:36;;;;;;;7.20;5.07;;;;;;;8.16;54.35;101461.16;5134190;27;20494;-41
2021/04/09 08:29:03;;;;;;;8.30;4.63;;;;;;;8.23;55.10;101460.13;5134162;27;20373;-41
2021/04/09 08:31:29;;;;;;;7.13;5.05;;;;;;;8.33;54.57;101470.53;5134376;27;20027;-41
2021/04/09 08:33:55;;;;;;;8.65;5.30;;;;;;;8.45;54.89;101465.47;5134100;27;20043;-41
2021/04/09 08:36:21;;;;;;;5.97;4.32;;;;;;;8.60;54.92;101470.69;5133347;27;20024;-42
2021/04/09 08:38:46;;;;;;;;;;;;;;;8.70;54.79;101463.03;5135022;27;20050;-42
2021/04/09 08:41:14;;;;;;;8.47;4.30;;;;;;;8.63;54.55;101464.88;5134545;27;20351;-41
2021/04/09 08:43:40;;;;;;;8.80;4.97;;;;;;;8.65;54.77;101460.94;5134378;28;20285;-41
2021/04/09 08:46:06;;;;;;;;;;;;;;;8.80;54.84;101465.34;5134974;28;20473;-41
2021/04/09 08:48:33;;;;;;;8.23;5.22;;;;;;;8.74;54.13;101469.69;5133888;27;19998;-41
2021/04/09 08:50:59;;;;;;;7.15;4.47;;;;;;;8.76;54.19;101467.63;5134686;28;20034;-41
2021/04/09 08:53:29;;;;;;;7.03;4.30;;;;;;;8.87;54.08;101461.63;5133841;28;20027;-42
2021/04/09 08:55:54;;;;;;;8.38;4.47;;;;;;;8.93;54.38;101462.66;5134014;28;20146;-41
2021/04/09 08:58:20;;;;;;;6.47;4.30;;;;;;;8.96;54.08;101465.78;5134078;28;20469;-41
2021/04/09 09:00:47;;;;;;;6.35;4.38;;;;;;;9.10;54.75;101466.63;5134129;28;20019;-41
2021/04/09 09:03:27;;;;;;;5.22;4.00;;;;;;;9.10;53.76;101452.31;5133670;28;20459;-43
2021/04/09 09:06:01;;;;;;;7.82;3.90;;;;;;;8.99;53.55;101470.78;5135675;27;20034;-41
2021/04/09 09:08:45;;;;;;;5.68;3.53;;;;;;;9.07;55.03;101472.44;5138773;27;20051;-41
2021/04/09 09:11:13;;;;;;;4.65;3.45;;;;;;;9.12;54.42;101477.22;5138354;27;20047;-41
2021/04/09 09:13:45;;;;;;;6.47;3.67;;;;;;;9.18;54.32;101468.31;5137887;27;20023;-41
2021/04/09 09:16:17;;;;;;;4.82;3.47;;;;;;;9.29;54.75;101467.69;5138644;27;20057;-40
2021/04/09 09:18:47;;;;;;;4.82;3.42;;;;;;;9.43;54.50;101468.53;5138322;27;20449;-41
2021/04/09 09:21:15;;;;;;;4.82;3.63;;;;;;;9.48;53.80;101476.81;5138260;27;20034;-41
2021/04/09 09:23:48;;;;;;;6.07;3.72;;;;;;;9.57;54.26;101480.97;5137761;27;20023;-41
2021/04/09 09:26:47;;;;;;;7.68;4.05;;;;;;;9.73;53.61;101468.91;5138705;27;20051;-41
2021/04/09 09:29:20;;;;;;;5.15;3.20;;;;;;;9.91;54.32;101471.78;5135439;27;20394;-41
2021/04/09 09:32:00;;;;;;;6.68;3.42;;;;;;;10.06;53.20;101471.53;5137711;27;20023;-41
2021/04/09 09:34:26;;;;;;;4.88;3.50;;;;;;;10.19;52.82;101459.84;5137385;27;20065;-41
2021/04/09 09:37:11;;;;;;;4.38;3.03;;;;;;;10.35;54.01;101461.31;5137615;27;20031;-41
2021/04/09 09:39:52;;;;;;;4.32;3.00;;;;;;;10.42;52.43;101468.31;5137236;27;20019;-41
2021/04/09 09:42:20;;;;;;;4.47;3.05;;;;;;;10.53;54.18;101461.41;5138087;27;20100;-41
2021/04/09 09:45:10;;;;;;;6.35;2.75;;;;;;;10.54;52.59;101465.75;5137171;27;20055;-41
2021/04/09 09:47:41;;;;;;;7.72;3.08;;;;;;;10.65;52.40;101469.69;5137849;27;20031;-41
2021/04/09 09:50:12;;;;;;;5.82;2.95;;;;;;;10.72;50.71;101462.34;5137612;27;20030;-41
2021/04/09 09:52:47;;;;;;;8.10;2.90;;;;;;;10.81;51.65;101459.16;5137799;27;20482;-41
2021/04/09 09:55:46;;;;;;;3.38;2.63;;;;;;;10.95;51.89;101459.91;5137560;27;20065;-41
2021/04/09 09:58:23;;;;;;;5.22;2.63;;;;;;;10.94;51.53;101450.16;5136819;27;20037;-41
2021/04/09 10:00:53;;;;;;;4.03;2.70;;;;;;;10.99;51.51;101452.19;5136926;27;20110;-41
2021/04/09 10:03:18;;;;;;;3.58;2.90;;;;;;;11.00;51.29;101443.84;5137025;27;20058;-42
2021/04/09 10:05:54;;;;;;;5.10;2.70;;;;;;;10.99;50.63;101441.38;5137435;27;20055;-41
2021/04/09 10:08:21;;;;;;;5.00;2.42;;;;;;;11.01;50.83;101445.50;5137004;27;20059;-41
2021/04/09 10:10:50;;;;;;;3.83;2.60;;;;;;;10.97;50.42;101444.28;5137609;27;20344;-41
2021/04/09 10:13:31;;;;;;;3.72;2.50;;;;;;;10.93;51.15;101451.19;5136442;27;20495;-41
2021/04/09 10:16:13;;;;;;;3.67;2.35;;;;;;;11.04;50.89;101439.66;5137669;27;20102;-41
2021/04/09 10:18:48;;;;;;;2.90;2.33;;;;;;;11.19;51.19;101446.63;5136506;27;20027;-42
2021/04/09 10:21:19;;;;;;;5.30;2.42;;;;;;;11.45;51.20;101435.56;5136568;27;20076;-41
2021/04/09 10:23:50;;;;;;;4.38;2.95;;;;;;;11.62;50.22;101445.84;5136801;27;20027;-41
2021/04/09 10:26:17;;;;;;;4.85;2.65;;;;;;;11.71;49.87;101439.06;5136882;27;20027;-41
2021/04/09 10:28:42;;;;;;;;;;;;;;;11.84;49.66;101434.38;5136937;27;20084;-41
2021/04/09 10:31:21;;;;;;;7.28;2.95;;;;;;;11.73;49.71;101432.38;5136819;27;19907;-41
2021/04/09 10:33:49;;;;;;;5.82;2.80;;;;;;;11.92;50.35;101438.69;5136445;27;20057;-42
2021/04/09 10:36:22;;;;;;;4.85;2.90;;;;;;;12.18;49.64;101434.00;5136613;27;20038;-41
2021/04/09 10:38:50;;;;;;;3.60;2.70;;;;;;;12.23;48.44;101431.44;5136880;27;20084;-41
2021/04/09 10:41:29;;;;;;;4.93;2.67;;;;;;;12.48;48.99;101429.44;5136502;27;20035;-41
2021/04/09 10:43:58;;;;;;;5.93;2.80;;;;;;;12.60;48.64;101427.59;5136705;27;20053;-41
2021/04/09 10:46:25;;;;;;;5.68;3.10;;;;;;;12.54;48.48;101428.53;5136115;27;20567;-41
2021/04/09 10:48:57;;;;;;;7.70;2.97;;;;;;;12.56;48.45;101426.41;5136135;27;20026;-42
2021/04/09 10:51:27;;;;;;;4.68;2.63;;;;;;;12.68;48.94;101423.72;5136697;27;20031;-42
2021/04/09 10:53:54;;;;;;;4.30;3.13;;;;;;;12.74;47.81;101425.53;5136579;27;20102;-42
2021/04/09 10:56:21;;;;;;;4.13;2.60;;;;;;;12.78;47.29;101421.28;5136264;27;20035;-42
2021/04/09 10:58:47;;;;;;;4.18;2.60;;;;;;;12.70;47.21;101418.09;5135867;27;20440;-42
2021/04/09 11:01:12;;;;;;;5.90;3.55;;;;;;;12.59;47.05;101420.53;5136198;27;20031;-42
2021/04/09 11:03:38;;;;;;;5.13;2.63;;;;;;;12.33;47.01;101429.84;5136122;27;20027;-41
2021/04/09 11:06:04;;;;;;;3.63;2.45;;;;;;;12.21;47.19;101411.88;5136657;27;20261;-42
2021/04/09 11:08:40;;;;;;;5.95;2.90;;;;;;;12.05;47.58;101419.56;5136544;27;20027;-42
2021/04/09 11:11:15;;;;;;;6.38;3.10;;;;;;;12.00;48.34;101411.25;5136128;27;20058;-41
2021/04/09 11:13:42;;;;;;;5.13;2.70;;;;;;;12.03;48.84;101413.53;5136230;27;20031;-42
2021/04/09 11:16:11;;;;;;;3.95;2.35;;;;;;;11.96;46.79;101415.50;5136399;27;20079;-41
2021/04/09 11:19:05;;;;;;;3.28;1.80;;;;;;;11.95;47.65;101413.81;5135794;27;20065;-41
2021/04/09 11:21:47;;;;;;;2.65;1.77;;;;;;;11.96;47.11;101415.50;5092835;28;20040;-41
2021/04/09 11:24:19;;;;;;;3.17;1.90;;;;;;;11.88;47.02;101418.50;5092245;28;20039;-41
2021/04/09 11:26:45;;;;;;;4.40;1.80;;;;;;;12.13;46.94;101412.16;5092654;28;20047;-41
2021/04/09 11:29:19;;;;;;;3.13;2.10;;;;;;;12.41;46.62;101404.28;5091804;28;20036;-41
2021/04/09 11:31:45;;;;;;;3.38;2.05;;;;;;;12.27;46.11;101397.38;5092406;28;20036;-41
2021/04/09 11:34:11;;;;;;;4.82;2.28;;;;;;;12.18;46.68;101396.03;5092294;28;20036;-41